Archival Weather

Norman Y Mineta San Jose Intl

San Jose, California (KSJC)

Report from: Saturday, February 17, 2024 6:53 PM PST
Current time: Monday, June 24, 2024 2:24 AM PDT

Current weather – Weather history – Daily summaries
Weather forecast

Present weatherLight rain
Temperature12.8°C (55.0°F)
Dew point10.6°C (51.1°F)
Winds 13 kts (6.7 m/s, 15 mph) Southeast (130°)
Visibility7 mi. (11.3 km)
Clouds Few clouds 900 ft. (274 m)
Ceiling: Broken clouds 4,000 ft. (1,219 m)
Overcast 6,500 ft. (1,981 m)
Altimeter29.88 in.Hg (1012 mB)
Precipitiation0.02 in. (1 mm)
Precip last 3 hours0.03 in. (1 mm)
Relative humidity86 %
Density altitude-35 ft. (-11 m)
Sea-level pressure101.2 kPa (1012 mB, 29.88 in.Hg)
Remarks Corrected report
Automated weather observing station with precipitation discriminator
Pressure rising more quickly
Flight conditions Visual Meteorological Conditions
Raw dataKSJC 180253Z COR 13013KT 7SM -RA FEW009 BKN040 OVC065 13/11 A2988 RMK AO2 SLP119 P0002 60003 T01280106 53007
An error has occurred. This application may no longer respond until reloaded. Reload 🗙